createdAt,value
2019-04-30T00:00:40.173Z,4.60
2019-04-30T00:01:40.164Z,4.40
2019-04-30T00:02:40.202Z,4.50
2019-04-30T00:03:40.142Z,4.70
2019-04-30T00:04:40.478Z,4.60
2019-04-30T00:05:40.121Z,4.50
2019-04-30T00:06:40.124Z,4.50
2019-04-30T00:07:40.101Z,4.40
2019-04-30T00:08:40.094Z,4.70
2019-04-30T00:09:40.076Z,4.60
2019-04-30T00:10:41.388Z,4.20
2019-04-30T00:11:40.070Z,4.70
2019-04-30T00:12:40.049Z,4.40
2019-04-30T00:13:40.034Z,4.70
2019-04-30T00:14:41.381Z,4.70
2019-04-30T00:15:40.021Z,4.70
2019-04-30T00:16:40.166Z,4.80
2019-04-30T00:17:40.021Z,4.70
2019-04-30T00:18:55.420Z,4.60
2019-04-30T00:19:40.976Z,4.10
2019-04-30T00:20:39.958Z,4.30
2019-04-30T00:21:39.954Z,4.30
2019-04-30T00:22:47.023Z,4.60
2019-04-30T00:23:40.925Z,4.40
2019-04-30T00:24:44.191Z,4.50
2019-04-30T00:25:40.907Z,4.80
2019-04-30T00:26:44.064Z,4.60
2019-04-30T00:27:40.909Z,4.50
2019-04-30T00:28:46.242Z,4.70
2019-04-30T00:29:40.859Z,4.70
2019-04-30T00:30:43.898Z,4.50
2019-04-30T00:31:40.846Z,4.60
2019-04-30T00:32:43.731Z,4.70
2019-04-30T00:33:40.833Z,4.70
2019-04-30T00:34:39.814Z,4.40
2019-04-30T00:35:39.813Z,4.20
2019-04-30T00:36:39.791Z,4.40
2019-04-30T00:37:39.786Z,4.50
2019-04-30T00:38:39.777Z,4.40
2019-04-30T00:39:44.446Z,4.60
2019-04-30T00:40:40.747Z,4.60
2019-04-30T00:41:43.177Z,4.40
2019-04-30T00:42:40.726Z,4.60
2019-04-30T00:43:46.469Z,4.70
2019-04-30T00:44:40.722Z,4.60
2019-04-30T00:45:40.086Z,4.50
2019-04-30T00:46:39.678Z,4.60
2019-04-30T00:47:44.535Z,4.80
2019-04-30T00:48:40.693Z,4.50
2019-04-30T00:49:39.646Z,4.30
2019-04-30T00:50:39.643Z,4.20
2019-04-30T00:51:39.627Z,4.30
2019-04-30T00:52:39.615Z,4.50
2019-04-30T00:53:39.603Z,4.50
2019-04-30T00:54:39.610Z,4.60
2019-04-30T00:55:44.233Z,4.40
2019-04-30T00:56:40.569Z,4.40
2019-04-30T00:57:43.863Z,4.60
2019-04-30T00:58:39.554Z,4.40
2019-04-30T00:59:43.735Z,4.20
2019-04-30T01:00:40.526Z,4.10
2019-04-30T01:01:43.487Z,4.60
2019-04-30T01:02:40.511Z,4.30
2019-04-30T01:03:43.752Z,4.30
2019-04-30T01:04:40.494Z,4.30
2019-04-30T01:05:43.541Z,4.10
2019-04-30T01:06:39.474Z,4.60
2019-04-30T01:07:45.638Z,4.40
2019-04-30T01:08:40.445Z,4.20
2019-04-30T01:09:43.559Z,4.40
2019-04-30T01:10:40.427Z,4.30
2019-04-30T01:11:39.738Z,4.10
2019-04-30T01:12:46.927Z,4.40
2019-04-30T01:13:45.633Z,4.00
2019-04-30T01:14:40.381Z,4.30
2019-04-30T01:15:39.370Z,4.40
2019-04-30T01:16:39.527Z,4.40
2019-04-30T01:17:40.861Z,4.70
2019-04-30T01:18:40.345Z,4.80
2019-04-30T01:19:39.674Z,4.40
2019-04-30T01:20:40.701Z,4.60
2019-04-30T01:21:40.221Z,4.10
2019-04-30T01:22:40.294Z,4.60
2019-04-30T01:23:41.787Z,4.80
2019-04-30T01:24:40.276Z,4.40
2019-04-30T01:25:43.104Z,4.50
2019-04-30T01:26:40.257Z,4.50
2019-04-30T01:27:45.732Z,4.30
2019-04-30T01:28:40.223Z,4.40
2019-04-30T01:29:44.194Z,4.40
2019-04-30T01:30:40.211Z,4.30
2019-04-30T01:31:40.793Z,4.20
2019-04-30T01:32:39.480Z,4.50
2019-04-30T01:33:39.179Z,4.50
2019-04-30T01:34:39.551Z,4.40
2019-04-30T01:35:40.614Z,4.60
2019-04-30T01:36:39.317Z,4.90
2019-04-30T01:37:39.138Z,4.30
2019-04-30T01:38:40.379Z,4.00
2019-04-30T01:39:40.105Z,4.40
2019-04-30T01:40:42.915Z,4.90
2019-04-30T01:41:40.265Z,4.80
2019-04-30T01:42:41.166Z,4.60
2019-04-30T01:43:40.065Z,4.20
2019-04-30T01:44:39.242Z,4.20
2019-04-30T01:45:39.046Z,4.40
2019-04-30T01:46:39.135Z,4.20
2019-04-30T01:47:39.724Z,4.00
2019-04-30T01:48:39.363Z,4.20
2019-04-30T01:49:42.853Z,4.60
2019-04-30T01:50:42.035Z,3.90
2019-04-30T01:51:38.992Z,4.00
2019-04-30T01:52:41.132Z,4.30
2019-04-30T01:53:43.515Z,4.30
2019-04-30T01:54:39.211Z,4.50
2019-04-30T01:55:38.996Z,4.60
2019-04-30T01:56:39.036Z,4.00
2019-04-30T01:57:39.072Z,4.20
2019-04-30T01:58:39.341Z,4.20
2019-04-30T01:59:38.886Z,4.40
2019-04-30T02:00:39.149Z,4.50
2019-04-30T02:01:39.061Z,4.60
2019-04-30T02:02:39.449Z,4.20
2019-04-30T02:03:40.093Z,5.00
2019-04-30T02:04:39.351Z,4.20
2019-04-30T02:05:38.823Z,4.50
2019-04-30T02:06:39.178Z,4.20
2019-04-30T02:07:40.398Z,4.60
2019-04-30T02:08:39.340Z,4.20
2019-04-30T02:09:38.877Z,4.60
2019-04-30T02:10:40.389Z,4.10
2019-04-30T02:11:38.937Z,4.30
2019-04-30T02:12:39.268Z,5.10
2019-04-30T02:13:39.233Z,4.40
2019-04-30T02:14:39.499Z,4.00
2019-04-30T02:15:39.060Z,4.60
2019-04-30T02:16:39.575Z,4.30
2019-04-30T02:17:38.945Z,4.20
2019-04-30T02:18:39.416Z,4.20
2019-04-30T02:19:39.077Z,4.30
2019-04-30T02:20:38.709Z,4.40
2019-04-30T02:21:38.695Z,4.80
2019-04-30T02:22:39.080Z,4.40
2019-04-30T02:23:39.252Z,4.60
2019-04-30T02:24:38.719Z,4.20
2019-04-30T02:25:39.914Z,4.50
2019-04-30T02:26:38.617Z,4.00
2019-04-30T02:27:39.036Z,4.30
2019-04-30T02:28:39.345Z,4.50
2019-04-30T02:29:39.714Z,4.30
2019-04-30T02:30:40.439Z,4.20
2019-04-30T02:31:40.807Z,4.10
2019-04-30T02:32:39.502Z,4.00
2019-04-30T02:33:40.447Z,4.00
2019-04-30T02:34:41.158Z,4.60
2019-04-30T02:35:40.655Z,4.00
2019-04-30T02:36:40.318Z,4.60
2019-04-30T02:37:39.957Z,4.50
2019-04-30T02:38:39.582Z,4.50
2019-04-30T02:39:40.341Z,4.20
2019-04-30T02:40:39.338Z,4.00
2019-04-30T02:41:41.170Z,4.60
2019-04-30T02:42:39.804Z,4.20
2019-04-30T02:43:39.841Z,4.40
2019-04-30T02:44:40.695Z,4.00
2019-04-30T02:45:40.079Z,4.20
2019-04-30T02:46:40.645Z,4.30
2019-04-30T02:47:39.967Z,4.30
2019-04-30T02:48:39.670Z,4.30
2019-04-30T02:49:39.852Z,4.20
2019-04-30T02:50:39.325Z,4.00
2019-04-30T02:51:39.957Z,4.50
2019-04-30T02:52:40.174Z,4.70
2019-04-30T02:53:40.218Z,4.40
2019-04-30T02:54:39.595Z,4.40
2019-04-30T02:55:40.349Z,4.30
2019-04-30T02:56:39.946Z,4.20
2019-04-30T02:57:40.135Z,4.30
2019-04-30T02:58:40.854Z,4.20
2019-04-30T02:59:40.273Z,4.30
2019-04-30T03:00:39.335Z,4.20
2019-04-30T03:01:40.226Z,4.20
2019-04-30T03:02:39.447Z,4.10
2019-04-30T03:03:39.700Z,4.50
2019-04-30T03:04:39.560Z,4.60
2019-04-30T03:05:39.235Z,4.20
2019-04-30T03:06:40.116Z,4.40
2019-04-30T03:07:40.520Z,4.20
2019-04-30T03:08:40.380Z,4.30
2019-04-30T03:09:39.359Z,4.50
2019-04-30T03:10:40.181Z,4.40
2019-04-30T03:11:40.608Z,4.40
2019-04-30T03:12:40.544Z,4.20
2019-04-30T03:13:42.535Z,4.00
2019-04-30T03:14:40.059Z,4.00
2019-04-30T03:15:39.499Z,4.10
2019-04-30T03:16:40.104Z,3.90
2019-04-30T03:17:39.443Z,4.20
2019-04-30T03:18:39.602Z,4.60
2019-04-30T03:19:40.115Z,4.50
2019-04-30T03:20:40.005Z,4.40
2019-04-30T03:21:40.360Z,4.60
2019-04-30T03:22:39.925Z,4.30
2019-04-30T03:23:39.157Z,4.10
2019-04-30T03:24:42.303Z,4.40
2019-04-30T03:25:40.359Z,4.30
2019-04-30T03:26:40.021Z,4.40
2019-04-30T03:27:42.267Z,4.30
2019-04-30T03:28:39.640Z,4.50
2019-04-30T03:29:40.471Z,4.40
2019-04-30T03:30:42.009Z,4.10
2019-04-30T03:31:42.812Z,3.90
2019-04-30T03:32:42.995Z,4.30
2019-04-30T03:33:41.923Z,4.50
2019-04-30T03:34:41.833Z,4.30
2019-04-30T03:35:42.224Z,4.40
2019-04-30T03:36:40.379Z,4.20
2019-04-30T03:37:39.634Z,4.30
2019-04-30T03:38:39.626Z,4.20
2019-04-30T03:39:40.036Z,4.10
2019-04-30T03:40:40.326Z,4.20
2019-04-30T03:41:40.452Z,4.20
2019-04-30T03:42:39.633Z,4.60
2019-04-30T03:43:39.873Z,4.10
2019-04-30T03:44:40.051Z,4.00
2019-04-30T03:45:40.104Z,4.70
2019-04-30T03:46:40.121Z,4.20
2019-04-30T03:47:40.401Z,4.20
2019-04-30T03:48:39.546Z,4.00
2019-04-30T03:49:40.280Z,4.30
2019-04-30T03:50:50.356Z,4.10
2019-04-30T03:51:40.254Z,4.10
2019-04-30T03:52:39.479Z,4.20
2019-04-30T03:53:42.387Z,16.70
2019-04-30T03:54:40.552Z,12.40
2019-04-30T03:55:39.909Z,24.00
2019-04-30T03:56:39.674Z,26.80
2019-04-30T03:57:39.844Z,9.50
2019-04-30T03:58:39.526Z,7.90
2019-04-30T03:59:39.679Z,5.30
2019-04-30T04:00:42.202Z,4.70
2019-04-30T04:01:39.724Z,4.10
2019-04-30T04:02:40.260Z,4.30
2019-04-30T04:03:42.080Z,4.90
2019-04-30T04:04:39.686Z,4.70
2019-04-30T04:05:39.734Z,4.70
2019-04-30T04:06:39.421Z,4.60
2019-04-30T04:07:39.455Z,4.30
2019-04-30T04:08:39.097Z,4.60
2019-04-30T04:09:39.974Z,4.30
2019-04-30T04:10:37.480Z,4.00
2019-04-30T04:11:39.667Z,4.30
2019-04-30T04:12:39.489Z,4.30
2019-04-30T04:13:39.920Z,4.50
2019-04-30T04:14:39.415Z,4.30
2019-04-30T04:15:39.703Z,3.90
2019-04-30T04:16:40.561Z,4.50
2019-04-30T04:17:39.757Z,4.50
2019-04-30T04:18:40.018Z,3.80
2019-04-30T04:19:39.300Z,4.50
2019-04-30T04:20:39.541Z,4.30
2019-04-30T04:21:39.335Z,4.40
2019-04-30T04:22:40.090Z,4.40
2019-04-30T04:23:39.949Z,4.20
2019-04-30T04:24:40.059Z,4.20
2019-04-30T04:25:39.702Z,4.50
2019-04-30T04:26:37.306Z,4.50
2019-04-30T04:27:39.298Z,4.40
2019-04-30T04:28:42.497Z,4.60
2019-04-30T04:29:40.338Z,4.60
2019-04-30T04:30:39.290Z,4.50
2019-04-30T04:31:39.511Z,4.40
2019-04-30T04:32:39.938Z,4.10
2019-04-30T04:33:39.589Z,4.20
2019-04-30T04:34:37.230Z,4.00
2019-04-30T04:35:39.178Z,4.50
2019-04-30T04:36:39.943Z,4.40
2019-04-30T04:37:39.467Z,4.50
2019-04-30T04:38:40.065Z,4.30
2019-04-30T04:39:38.898Z,5.10
2019-04-30T04:40:39.841Z,4.10
2019-04-30T04:41:39.733Z,4.50
2019-04-30T04:42:39.589Z,4.30
2019-04-30T04:43:37.123Z,4.80
2019-04-30T04:44:39.338Z,4.60
2019-04-30T04:45:40.389Z,4.60
2019-04-30T04:46:40.168Z,4.40
2019-04-30T04:47:37.081Z,4.90
2019-04-30T04:48:39.455Z,4.50
2019-04-30T04:49:39.619Z,4.40
2019-04-30T04:50:37.046Z,4.20
2019-04-30T04:51:39.448Z,4.30
2019-04-30T04:52:39.632Z,4.20
2019-04-30T04:53:37.025Z,4.40
2019-04-30T04:54:37.015Z,4.40
2019-04-30T04:55:36.996Z,4.60
2019-04-30T04:56:36.987Z,4.80
2019-04-30T04:57:36.981Z,4.20
2019-04-30T04:58:36.998Z,4.20
2019-04-30T04:59:39.385Z,4.40
2019-04-30T05:00:39.175Z,3.90
2019-04-30T05:01:38.758Z,4.80
2019-04-30T05:02:39.573Z,4.30
2019-04-30T05:03:36.921Z,4.50
2019-04-30T05:04:36.911Z,74.50
2019-04-30T05:05:36.913Z,109.30
2019-04-30T05:06:36.907Z,75.40
2019-04-30T05:07:36.869Z,11.50
2019-04-30T05:08:36.853Z,4.90
2019-04-30T05:09:36.848Z,4.20
2019-04-30T05:10:36.880Z,4.50
2019-04-30T05:11:36.824Z,4.80
2019-04-30T05:12:37.945Z,4.60
2019-04-30T05:13:36.808Z,4.20
2019-04-30T05:14:38.533Z,4.50
2019-04-30T05:15:36.827Z,4.40
2019-04-30T05:16:38.815Z,4.10
2019-04-30T05:17:36.755Z,4.20
2019-04-30T05:18:36.747Z,4.20
2019-04-30T05:19:38.455Z,4.40
2019-04-30T05:20:39.840Z,4.50
2019-04-30T05:21:42.672Z,4.90
2019-04-30T05:22:38.911Z,4.10
2019-04-30T05:23:36.689Z,4.60
2019-04-30T05:24:38.450Z,4.60
2019-04-30T05:25:36.667Z,4.30
2019-04-30T05:26:38.594Z,4.50
2019-04-30T05:27:36.645Z,4.40
2019-04-30T05:28:36.640Z,4.30
2019-04-30T05:29:38.601Z,4.30
2019-04-30T05:30:36.614Z,4.40
2019-04-30T05:31:38.463Z,4.60
2019-04-30T05:32:36.610Z,4.30
2019-04-30T05:33:36.587Z,4.20
2019-04-30T05:34:38.553Z,4.20
2019-04-30T05:35:38.729Z,4.60
2019-04-30T05:36:36.588Z,4.60
2019-04-30T05:37:38.421Z,5.10
2019-04-30T05:38:36.543Z,4.40
2019-04-30T05:39:36.520Z,4.40
2019-04-30T05:40:36.508Z,4.50
2019-04-30T05:41:36.492Z,4.30
2019-04-30T05:42:38.507Z,4.80
2019-04-30T05:43:36.476Z,4.70
2019-04-30T05:44:36.465Z,4.90
2019-04-30T05:45:36.455Z,4.50
2019-04-30T05:46:36.449Z,4.60
2019-04-30T05:47:36.451Z,4.50
2019-04-30T05:48:36.425Z,4.70
2019-04-30T05:49:36.422Z,4.30
2019-04-30T05:50:36.400Z,4.40
2019-04-30T05:51:54.929Z,4.50
2019-04-30T05:52:39.491Z,4.70
